^^
Datos históricos de la estación: Murcia-Puente Tocinos
Diario Informe para Julio 7, 2019 Unidades:  Métrico    Ingés   Ambas
Diario Semanal Mensual Anual
  Máxima: Mínima: Promedio:
Temperatura: 39.7 °C 25 °C 30.6 °C
Punto de rocio: 23 °C 8.7 °C 17.5 °C
Humedad: 85% 15.6% 52%
Velocidad viento: 19km/h 0km/h 7.8km/h
Racha viento: 33.8km/h - -
Viento- - SSE
Presión: 1010.6 hPa 1007.1 hPa -
Precipitación: 0.0 mm    
 
 
Tabla de datos para Julio 7, 2019
Hora Temperatura Punto de rocio Presión Viento Velocidad viento Racha viento Humedad Intensidad lluvia(por hora) Nubes
00:04 27.5 °C 21.7 °C 1008.7 hPa NNE 6.5 km/h 13.7 km/h 71% 0.0 mm
00:09 27.4 °C 21.6 °C 1008.7 hPa NNE 6.8 km/h 14.8 km/h 70.5% 0.0 mm
00:14 27.4 °C 21.6 °C 1008.7 hPa NNE 8.4 km/h 14.5 km/h 70.5% 0.0 mm
00:19 27.4 °C 21.7 °C 1008.8 hPa NNE 8.2 km/h 13.7 km/h 71.2% 0.0 mm
00:24 27.3 °C 21.9 °C 1008.8 hPa NNE 7.6 km/h 18.5 km/h 72.4% 0.0 mm
00:29 27.2 °C 21.9 °C 1008.8 hPa NNE 7.8 km/h 19.3 km/h 73% 0.0 mm
00:34 27.1 °C 21.9 °C 1008.8 hPa North 8.7 km/h 12.9 km/h 73.4% 0.0 mm
00:39 27.1 °C 22.1 °C 1008.8 hPa NE 8.3 km/h 11.9 km/h 74% 0.0 mm
00:44 27 °C 22 °C 1008.8 hPa NNE 6.5 km/h 15.6 km/h 74.2% 0.0 mm
00:49 26.9 °C 22.1 °C 1008.8 hPa NNE 6.8 km/h 16.1 km/h 75% 0.0 mm
00:54 26.8 °C 22.2 °C 1008.8 hPa North 8.7 km/h 14 km/h 76% 0.0 mm
00:59 26.7 °C 22.2 °C 1008.8 hPa NNE 8.7 km/h 14.8 km/h 76.6% 0.0 mm
01:04 26.7 °C 22.3 °C 1008.8 hPa NNE 8.7 km/h 18.5 km/h 77% 0.0 mm
01:09 26.6 °C 22.2 °C 1008.5 hPa NE 8.6 km/h 19.3 km/h 77% 0.0 mm
01:14 26.6 °C 22.4 °C 1008.4 hPa North 8.4 km/h 11.3 km/h 77.9% 0.0 mm
01:19 26.6 °C 22.4 °C 1008.6 hPa NNE 8 km/h 10 km/h 78% 0.0 mm
01:24 26.6 °C 22.6 °C 1008.6 hPa NNE 5.8 km/h 9.7 km/h 78.6% 0.0 mm
01:29 26.5 °C 22.6 °C 1008.6 hPa NNO 5.6 km/h 9.7 km/h 79% 0.0 mm
01:34 26.5 °C 22.6 °C 1008.6 hPa NNE 5 km/h 9.7 km/h 79% 0.0 mm
01:39 26.4 °C 22.5 °C 1008.6 hPa NE 4.8 km/h 9.3 km/h 79.3% 0.0 mm
01:44 26.4 °C 22.6 °C 1008.6 hPa NNO 3.9 km/h 9.7 km/h 80% 0.0 mm
01:49 26.3 °C 22.6 °C 1008.6 hPa North 3.9 km/h 8 km/h 80% 0.0 mm
01:54 26.3 °C 22.7 °C 1008.4 hPa NNE 3.3 km/h 9.5 km/h 80.7% 0.0 mm
01:59 26.2 °C 22.7 °C 1008.3 hPa NE 3.6 km/h 9.7 km/h 81% 0.0 mm
02:04 26.2 °C 22.6 °C 1008.3 hPa North 5 km/h 9.7 km/h 81% 0.0 mm
02:09 26.1 °C 22.6 °C 1008.3 hPa NO 5 km/h 6.4 km/h 81.2% 0.0 mm
02:14 26.1 °C 22.8 °C 1008.3 hPa NNO 2.5 km/h 8.4 km/h 82% 0.0 mm
02:19 26.1 °C 22.7 °C 1008.3 hPa NNE 2.4 km/h 8 km/h 81.5% 0.0 mm
02:24 26.1 °C 22.8 °C 1008.0 hPa North 3.2 km/h 8 km/h 82% 0.0 mm
02:29 26.1 °C 22.8 °C 1007.9 hPa North 3.2 km/h 8 km/h 82% 0.0 mm
02:34 26.1 °C 22.8 °C 1008.0 hPa NNE 3.2 km/h 8 km/h 82% 0.0 mm
02:39 26.1 °C 22.8 °C 1008.0 hPa NNO 3.2 km/h 5.8 km/h 82% 0.0 mm
02:44 26.1 °C 23 °C 1008.0 hPa NNO 2.3 km/h 6.4 km/h 82.8% 0.0 mm
02:49 26.1 °C 23 °C 1008.0 hPa NO 2.2 km/h 7.4 km/h 83% 0.0 mm
02:54 26.1 °C 23 °C 1007.9 hPa NO 2.8 km/h 8 km/h 83% 0.0 mm
02:59 26.1 °C 23 °C 1007.9 hPa NO 3 km/h 8 km/h 83% 0.0 mm
03:04 26 °C 22.9 °C 1007.9 hPa ONO 3.2 km/h 8 km/h 83% 0.0 mm
03:09 26 °C 22.9 °C 1007.7 hPa NO 3.2 km/h 8 km/h 83% 0.0 mm
03:14 26 °C 22.9 °C 1007.7 hPa NO 3.2 km/h 6.4 km/h 83% 0.0 mm
03:19 26 °C 22.9 °C 1007.7 hPa NO 3.2 km/h 5.6 km/h 83% 0.0 mm
03:24 26 °C 22.9 °C 1007.6 hPa NO 2.3 km/h 5.8 km/h 83% 0.0 mm
03:29 26 °C 22.9 °C 1007.6 hPa NO 2.2 km/h 6.4 km/h 83% 0.0 mm
03:34 26 °C 22.9 °C 1007.6 hPa NO 0.1 km/h 3.7 km/h 83% 0.0 mm
03:39 26 °C 22.8 °C 1007.6 hPa ESE 0.5 km/h 10 km/h 82.7% 0.0 mm
03:44 25.8 °C 22.7 °C 1007.6 hPa SE 2.9 km/h 9.7 km/h 82.9% 0.0 mm
03:49 25.8 °C 22.7 °C 1007.6 hPa SE 3.1 km/h 8 km/h 83% 0.0 mm
03:54 25.8 °C 22.7 °C 1007.5 hPa SE 3.9 km/h 4.8 km/h 83% 0.0 mm
03:59 25.8 °C 22.7 °C 1007.5 hPa SE 3 km/h 9.5 km/h 83% 0.0 mm
04:04 25.8 °C 22.5 °C 1007.7 hPa Calm   9.7 km/h 82.2% 0.0 mm
04:09 25.8 °C 22.3 °C 1007.7 hPa SE 0.5 km/h 9.7 km/h 81.1% 0.0 mm
04:14 25.8 °C 22.2 °C 1007.7 hPa Este 3.2 km/h 5.8 km/h 80.7% 0.0 mm
04:19 25.8 °C 22.1 °C 1007.7 hPa Este 3.2 km/h 7.4 km/h 80% 0.0 mm
04:24 25.8 °C 22.1 °C 1007.7 hPa Este 3.2 km/h 8 km/h 80% 0.0 mm
04:29 25.8 °C 22.1 °C 1007.7 hPa NNE 3.1 km/h 5.6 km/h 80.1% 0.0 mm
04:34 25.8 °C 22.3 °C 1007.7 hPa NNO 2.2 km/h 4.8 km/h 81% 0.0 mm
04:39 25.7 °C 22.2 °C 1007.6 hPa NNO 2.2 km/h 4.8 km/h 81% 0.0 mm
04:44 25.7 °C 22.2 °C 1007.6 hPa North 2.2 km/h 5.8 km/h 81.4% 0.0 mm
04:49 25.7 °C 22.4 °C 1007.7 hPa NNE 2.2 km/h 6.4 km/h 82.1% 0.0 mm
04:54 25.7 °C 22.6 °C 1007.7 hPa NNE 2.2 km/h 2.3 km/h 83% 0.0 mm
04:59 25.7 °C 22.8 °C 1007.7 hPa NNE 1.8 km/h 1.6 km/h 83.8% 0.0 mm
05:04 25.7 °C 22.8 °C 1007.7 hPa Calm     84% 0.0 mm
05:09 25.7 °C 22.7 °C 1007.7 hPa Calm   3.9 km/h 83.5% 0.0 mm
05:14 25.7 °C 22.7 °C 1007.7 hPa Calm   3.9 km/h 84% 0.0 mm
05:19 25.6 °C 22.7 °C 1007.7 hPa Calm   5.8 km/h 84% 0.0 mm
05:24 25.6 °C 22.7 °C 1007.7 hPa Calm   6.4 km/h 84% 0.0 mm
05:29 25.6 °C 22.6 °C 1007.7 hPa Calm   4.8 km/h 84% 0.0 mm
05:34 25.5 °C 22.6 °C 1007.7 hPa Calm     84% 0.0 mm
05:39 25.4 °C 22.7 °C 1007.7 hPa Calm     84.8% 0.0 mm
05:44 25.4 °C 22.7 °C 1007.7 hPa Calm     85% 0.0 mm
05:49 25.4 °C 22.5 °C 1007.7 hPa Calm     84% 0.0 mm
05:54 25.4 °C 22.3 °C 1007.7 hPa Calm     83% 0.0 mm
05:59 25.3 °C 22.2 °C 1007.7 hPa Calm   8.4 km/h 82.7% 0.0 mm
06:04 25.3 °C 21.7 °C 1007.7 hPa Calm   8 km/h 80.7% 0.0 mm
06:09 25.3 °C 21.5 °C 1007.7 hPa Sur 0.5 km/h 8 km/h 79.7% 0.0 mm
06:14 25.2 °C 20.8 °C 1007.7 hPa SSE 2.9 km/h 9.3 km/h 76.8% 0.0 mm
06:19 25.2 °C 20.7 °C 1007.7 hPa SSO 3.2 km/h 11.1 km/h 76% 0.0 mm
06:24 25.3 °C 20.8 °C 1007.7 hPa SSO 5.8 km/h 11.3 km/h 76% 0.0 mm
06:29 25.3 °C 20.8 °C 1007.7 hPa SSO 6.1 km/h 11.9 km/h 76% 0.0 mm
06:34 25.2 °C 20.7 °C 1007.9 hPa SSO 7.6 km/h 11.3 km/h 76% 0.0 mm
06:39 25.2 °C 20.7 °C 1007.9 hPa SSO 7.5 km/h 13 km/h 76% 0.0 mm
06:44 25.2 °C 20.6 °C 1007.9 hPa SO 6.9 km/h 13 km/h 75.7% 0.0 mm
06:49 25.2 °C 20.5 °C 1007.9 hPa SO 6.9 km/h 13 km/h 75.1% 0.0 mm
06:54 25.2 °C 20.4 °C 1007.9 hPa SO 6.9 km/h 13 km/h 75% 0.0 mm
06:59 25.2 °C 20.4 °C 1007.9 hPa SO 7.1 km/h 12.9 km/h 75% 0.0 mm
07:04 25.2 °C 20.4 °C 1008.1 hPa OSO 7.6 km/h 13 km/h 75% 0.0 mm
07:09 25.2 °C 20.6 °C 1008.1 hPa OSO 7.6 km/h 13 km/h 75.7% 0.0 mm
07:14 25.2 °C 20.8 °C 1008.1 hPa SO 7.6 km/h 12.9 km/h 76.8% 0.0 mm
07:19 25.1 °C 20.8 °C 1008.3 hPa SO 7.5 km/h 11.3 km/h 77% 0.0 mm
07:24 25.1 °C 20.9 °C 1008.3 hPa SO 6.9 km/h 11.3 km/h 77.8% 0.0 mm
07:29 25.1 °C 21 °C 1008.3 hPa SO 6.9 km/h 11.3 km/h 78% 0.0 mm
07:34 25.1 °C 20.8 °C 1008.3 hPa SSO 6.9 km/h 11.9 km/h 77.1% 0.0 mm
07:39 25.1 °C 20.6 °C 1008.2 hPa SSO 7 km/h 11.3 km/h 76.4% 0.0 mm
07:44 25 °C 20.5 °C 1008.2 hPa SSO 7.6 km/h 11.9 km/h 75.8% 0.0 mm
07:49 25 °C 20.3 °C 1008.2 hPa SSO 7.5 km/h 11.3 km/h 75% 0.0 mm
07:54 25 °C 20.3 °C 1008.2 hPa SSO 6.9 km/h 11.3 km/h 75% 0.0 mm
07:59 25.1 °C 20.3 °C 1008.2 hPa SO 6.9 km/h 11.3 km/h 75% 0.0 mm
08:04 25.2 °C 20.5 °C 1008.2 hPa SO 6.9 km/h 11.3 km/h 75.3% 0.0 mm
08:09 25.3 °C 20.7 °C 1008.1 hPa SO 6.7 km/h 11.1 km/h 75.8% 0.0 mm
08:14 25.3 °C 20.5 °C 1008.1 hPa SO 5.8 km/h 11.9 km/h 74.8% 0.0 mm
08:19 25.4 °C 20.2 °C 1008.4 hPa SO 6.2 km/h 14 km/h 72.9% 0.0 mm
08:24 25.4 °C 20 °C 1008.4 hPa OSO 8.4 km/h 14.5 km/h 71.9% 0.0 mm
08:29 25.5 °C 19.8 °C 1008.4 hPa OSO 8.1 km/h 12.9 km/h 71.1% 0.0 mm
08:34 25.6 °C 19.8 °C 1008.4 hPa OSO 6.9 km/h 9.7 km/h 70.4% 0.0 mm
08:39 25.7 °C 19.8 °C 1008.3 hPa Oeste 6.7 km/h 9.7 km/h 70% 0.0 mm
08:44 25.7 °C 19.7 °C 1008.3 hPa Oeste 5.8 km/h 11.1 km/h 69.6% 0.0 mm
08:49 25.7 °C 19.8 °C 1008.3 hPa Oeste 5.6 km/h 11.3 km/h 69.7% 0.0 mm
08:54 25.8 °C 19.7 °C 1008.3 hPa Oeste 5 km/h 10 km/h 69% 0.0 mm
08:59 25.9 °C 19.7 °C 1008.3 hPa Oeste 5.2 km/h 9.7 km/h 69% 0.0 mm
09:04 26 °C 19.8 °C 1008.5 hPa ONO 5.8 km/h 10 km/h 69% 0.0 mm
09:09 26.1 °C 19.8 °C 1008.5 hPa ONO 5.9 km/h 11.1 km/h 68.2% 0.0 mm
09:14 26.2 °C 19.8 °C 1008.5 hPa Oeste 6.4 km/h 11.3 km/h 67.9% 0.0 mm
09:19 26.3 °C 19.8 °C 1008.7 hPa Oeste 6.2 km/h 9.7 km/h 67.3% 0.0 mm
09:24 26.5 °C 19.9 °C 1008.7 hPa OSO 5 km/h 9.7 km/h 67% 0.0 mm
09:29 26.8 °C 19.9 °C 1008.7 hPa Oeste 4.7 km/h 9.5 km/h 66.3% 0.0 mm
09:34 27 °C 20.1 °C 1008.8 hPa ONO 3.2 km/h 9.7 km/h 66% 0.0 mm
09:39 27.2 °C 20.3 °C 1008.8 hPa ONO 3.5 km/h 9.7 km/h 66% 0.0 mm
09:44 27.4 °C 20.3 °C 1008.8 hPa Oeste 4.7 km/h 8 km/h 64.9% 0.0 mm
09:49 27.7 °C 20.3 °C 1008.9 hPa Oeste 4.7 km/h 8.4 km/h 63.9% 0.0 mm
09:54 27.8 °C 20.3 °C 1008.9 hPa ONO 4.7 km/h 8 km/h 63.5% 0.0 mm
09:59 28.1 °C 19.9 °C 1008.9 hPa OSO 4.7 km/h 11.1 km/h 60.9% 0.0 mm
10:04 28.4 °C 19.4 °C 1009.0 hPa OSO 5 km/h 11.3 km/h 58.1% 0.0 mm
10:09 28.7 °C 18.5 °C 1009.0 hPa SO 5 km/h 14.8 km/h 54.2% 0.0 mm
10:14 29.1 °C 18.7 °C 1009.0 hPa OSO 5.8 km/h 14.5 km/h 53.5% 0.0 mm
10:19 29.4 °C 18.5 °C 1009.0 hPa SSO 5.8 km/h 11.9 km/h 52% 0.0 mm
10:24 29.7 °C 18.2 °C 1009.0 hPa SSO 5.8 km/h 13.7 km/h 50.2% 0.0 mm
10:29 29.8 °C 17.9 °C 1009.0 hPa SSO 6.4 km/h 14.5 km/h 48.6% 0.0 mm
10:34 30 °C 17.1 °C 1009.0 hPa SSO 9.5 km/h 13.7 km/h 45.9% 0.0 mm
10:39 30.2 °C 16.6 °C 1009.0 hPa SSO 9.4 km/h 14.8 km/h 44.1% 0.0 mm
10:44 30.2 °C 16.5 °C 1009.0 hPa SO 8.7 km/h 14.5 km/h 43.8% 0.0 mm
10:49 30.4 °C 16.8 °C 1009.2 hPa SSO 8.4 km/h 13 km/h 44% 0.0 mm
10:54 30.7 °C 16.6 °C 1009.2 hPa SSO 6.9 km/h 12.9 km/h 42.9% 0.0 mm
10:59 30.9 °C 16.1 °C 1009.2 hPa SO 6.9 km/h 11.3 km/h 40.9% 0.0 mm
11:04 31.1 °C 15.2 °C 1009.3 hPa SO 6.9 km/h 13.7 km/h 38.2% 0.0 mm
11:09 31.2 °C 15.6 °C 1009.3 hPa SSO 6.9 km/h 14.5 km/h 39% 0.0 mm
11:14 31.5 °C 15.4 °C 1009.3 hPa Sur 6.5 km/h 11.9 km/h 37.8% 0.0 mm
11:19 31.8 °C 15.6 °C 1009.3 hPa SSO 6.5 km/h 11.3 km/h 37.8% 0.0 mm
11:24 32.1 °C 15.3 °C 1009.3 hPa SO 6.5 km/h 13 km/h 36.3% 0.0 mm
11:29 32.3 °C 14.4 °C 1009.3 hPa SO 6.5 km/h 16.7 km/h 34% 0.0 mm
11:34 32.6 °C 13.8 °C 1009.3 hPa OSO 6.5 km/h 16.1 km/h 32.1% 0.0 mm
11:39 32.8 °C 14.1 °C 1009.1 hPa SO 6.7 km/h 14.5 km/h 32.4% 0.0 mm
11:44 33 °C 13.6 °C 1009.1 hPa SO 7.6 km/h 18.5 km/h 31% 0.0 mm
11:49 33.2 °C 13.8 °C 1009.2 hPa SO 7.8 km/h 19.3 km/h 30.9% 0.0 mm
11:54 33.6 °C 13.3 °C 1009.2 hPa SO 8.7 km/h 14.5 km/h 29.4% 0.0 mm
11:59 33.9 °C 13.3 °C 1009.2 hPa SO 8.3 km/h 14.5 km/h 29% 0.0 mm
12:04 34.2 °C 13.6 °C 1009.2 hPa SO 6.9 km/h 14.5 km/h 29% 0.0 mm
12:09 34.6 °C 13.1 °C 1009.1 hPa SO 6.9 km/h 13 km/h 27.4% 0.0 mm
12:14 34.7 °C 13 °C 1009.1 hPa OSO 6.5 km/h 16.7 km/h 27.1% 0.0 mm
12:19 34.7 °C 12.9 °C 1009.1 hPa OSO 6.8 km/h 16.1 km/h 27% 0.0 mm
12:24 34.8 °C 12.6 °C 1009.0 hPa OSO 8.4 km/h 16.1 km/h 26.2% 0.0 mm
12:29 34.9 °C 12.6 °C 1009.0 hPa Oeste 7.9 km/h 11.3 km/h 26% 0.0 mm
12:34 35.2 °C 11.5 °C 1009.0 hPa ONO 5.8 km/h 18.5 km/h 23.9% 0.0 mm
12:39 35.4 °C 11.1 °C 1008.9 hPa NO 6.4 km/h 19.3 km/h 23% 0.0 mm
12:44 35.5 °C 10.7 °C 1008.9 hPa NO 9.5 km/h 19.3 km/h 22.2% 0.0 mm
12:49 35.6 °C 10.6 °C 1008.9 hPa ONO 9.4 km/h 16.1 km/h 22% 0.0 mm
12:54 35.6 °C 10.4 °C 1008.7 hPa ONO 8.7 km/h 14.5 km/h 21.7% 0.0 mm
12:59 35.8 °C 10.2 °C 1008.7 hPa ONO 8.1 km/h 12.9 km/h 21.2% 0.0 mm
13:04 36.1 °C 10.3 °C 1008.7 hPa NO 5.8 km/h 13 km/h 21% 0.0 mm
13:09 36.4 °C 10.2 °C 1008.6 hPa ONO 5.6 km/h 17.2 km/h 20.5% 0.0 mm
13:14 36.5 °C 9.9 °C 1008.6 hPa NO 5 km/h 17.7 km/h 20% 0.0 mm
13:19 36.4 °C 9.9 °C 1008.6 hPa ONO 5.6 km/h 17.2 km/h 20% 0.0 mm
13:24 36.6 °C 9.9 °C 1008.6 hPa ONO 8.7 km/h 17.7 km/h 19.9% 0.0 mm
13:29 36.7 °C 9.6 °C 1008.6 hPa NO 8.9 km/h 16.7 km/h 19.3% 0.0 mm
13:34 36.9 °C 9.4 °C 1008.6 hPa ONO 10 km/h 16.7 km/h 18.9% 0.0 mm
13:39 37 °C 9.6 °C 1008.5 hPa Oeste 9.6 km/h 16.1 km/h 19% 0.0 mm
13:44 37.2 °C 9.6 °C 1008.5 hPa NO 7.6 km/h 14.8 km/h 18.8% 0.0 mm
13:49 37.4 °C 9.9 °C 1008.5 hPa NO 7.7 km/h 14.5 km/h 19% 0.0 mm
13:54 37.7 °C 9.6 °C 1008.3 hPa NE 8.4 km/h 12.9 km/h 18.4% 0.0 mm
13:59 37.8 °C 9.8 °C 1008.3 hPa NE 7.8 km/h 11.3 km/h 18.6% 0.0 mm
14:04 37.9 °C 9.7 °C 1008.3 hPa NNO 5.8 km/h 11.3 km/h 18.2% 0.0 mm
14:09 38.3 °C 10.1 °C 1008.3 hPa Oeste 5.3 km/h 8 km/h 18.3% 0.0 mm
14:14 38.7 °C 9.8 °C 1008.3 hPa NO 2.9 km/h 11.1 km/h 17.7% 0.0 mm
14:19 38.8 °C 9.4 °C 1008.3 hPa SSE 3.4 km/h 14.8 km/h 17.1% 0.0 mm
14:24 38.7 °C 9.4 °C 1008.3 hPa SO 5.8 km/h 14.5 km/h 17.2% 0.0 mm
14:29 38.6 °C 9.2 °C 1008.3 hPa OSO 5.6 km/h 9.7 km/h 17% 0.0 mm
14:34 38.7 °C 9.3 °C 1008.3 hPa Oeste 4.7 km/h 9.7 km/h 17% 0.0 mm
14:39 38.7 °C 9.7 °C 1008.2 hPa Oeste 4.7 km/h 9.7 km/h 17.4% 0.0 mm
14:44 38.8 °C 10.1 °C 1008.2 hPa NE 4.7 km/h 11.1 km/h 17.9% 0.0 mm
14:49 38.7 °C 9.4 °C 1008.2 hPa NE 4.9 km/h 11.3 km/h 17.2% 0.0 mm
14:54 38.6 °C 9.5 °C 1008.1 hPa ENE 6.4 km/h 11.3 km/h 17.3% 0.0 mm
14:59 38.6 °C 9.2 °C 1008.1 hPa ENE 6.1 km/h 11.1 km/h 17% 0.0 mm
15:04 38.5 °C 9.1 °C 1008.1 hPa NE 5 km/h 13 km/h 17% 0.0 mm
15:09 38.4 °C 9.2 °C 1008.0 hPa NE 5.1 km/h 12.9 km/h 17.1% 0.0 mm
15:14 38.6 °C 9.1 °C 1008.0 hPa NNE 5.8 km/h 9.7 km/h 16.9% 0.0 mm
15:19 38.8 °C 8.8 °C 1008.0 hPa ONO 5.6 km/h 8.4 km/h 16.4% 0.0 mm
15:24 39.1 °C 8.7 °C 1007.8 hPa OSO 4.7 km/h 8 km/h 16% 0.0 mm
15:29 39.3 °C 8.8 °C 1007.8 hPa SSE 4.4 km/h 8 km/h 16% 0.0 mm
15:34 39.5 °C 8.9 °C 1007.8 hPa OSO 3.2 km/h 7.4 km/h 15.9% 0.0 mm
15:39 39.7 °C 9.1 °C 1007.7 hPa NO 3.3 km/h 9.5 km/h 16% 0.0 mm
15:44 39.6 °C 8.8 °C 1007.7 hPa NNO 3.9 km/h 9.7 km/h 15.6% 0.0 mm
15:49 39.5 °C 9 °C 1007.7 hPa North 3.9 km/h 8 km/h 16% 0.0 mm
15:54 39.6 °C 9.5 °C 1007.6 hPa ENE 3.9 km/h 9.3 km/h 16.5% 0.0 mm
15:59 39.6 °C 9.1 °C 1007.6 hPa NE 4 km/h 9.7 km/h 16% 0.0 mm
16:04 39.5 °C 9.1 °C 1007.6 hPa NNE 4.6 km/h 14 km/h 16.1% 0.0 mm
16:09 39.3 °C 10.9 °C 1007.4 hPa Este 5.1 km/h 20.9 km/h 18.7% 0.0 mm
16:14 38.8 °C 16.4 °C 1007.4 hPa ESE 7.6 km/h 20.9 km/h 27% 0.0 mm
16:19 38.2 °C 17.2 °C 1007.4 hPa ESE 8.4 km/h 20.9 km/h 29.4% 0.0 mm
16:24 37.8 °C 17.3 °C 1007.3 hPa SE 12.2 km/h 24.5 km/h 30% 0.0 mm
16:29 37.7 °C 17.6 °C 1007.3 hPa ESE 12.4 km/h 24.5 km/h 30.8% 0.0 mm
16:34 37.6 °C 17.5 °C 1007.4 hPa SE 13 km/h 24.1 km/h 30.9% 0.0 mm
16:39 37.3 °C 17.8 °C 1007.4 hPa SE 13.2 km/h 24.1 km/h 31.9% 0.0 mm
16:44 37.3 °C 17.8 °C 1007.4 hPa SE 14 km/h 22.5 km/h 31.9% 0.0 mm
16:49 37.3 °C 17.8 °C 1007.4 hPa ESE 13.7 km/h 24.1 km/h 32% 0.0 mm
16:54 37.1 °C 17.7 °C 1007.3 hPa ESE 11.9 km/h 24.1 km/h 32% 0.0 mm
16:59 37.2 °C 17.8 °C 1007.3 hPa ESE 12.3 km/h 24.1 km/h 32% 0.0 mm
17:04 37.3 °C 17.4 °C 1007.3 hPa ESE 13.7 km/h 27.8 km/h 31.1% 0.0 mm
17:09 37.3 °C 17.3 °C 1007.1 hPa ESE 14.3 km/h 27.4 km/h 31% 0.0 mm
17:14 37.3 °C 17.3 °C 1007.1 hPa ESE 17.2 km/h 25.9 km/h 31% 0.0 mm
17:19 37.2 °C 17.2 °C 1007.3 hPa ESE 17.1 km/h 25.7 km/h 31% 0.0 mm
17:24 37 °C 17.1 °C 1007.3 hPa ESE 16.4 km/h 25.9 km/h 30.9% 0.0 mm
17:29 36.9 °C 16.9 °C 1007.3 hPa ESE 16.4 km/h 27.8 km/h 30.8% 0.0 mm
17:34 36.9 °C 16.4 °C 1007.3 hPa ESE 16.1 km/h 27.4 km/h 29.9% 0.0 mm
17:39 36.9 °C 16 °C 1007.1 hPa ESE 16 km/h 26.2 km/h 29% 0.0 mm
17:44 36.9 °C 16.1 °C 1007.1 hPa ESE 15.6 km/h 25.7 km/h 29.3% 0.0 mm
17:49 36.9 °C 16.1 °C 1007.1 hPa ESE 15.5 km/h 25.9 km/h 29.2% 0.0 mm
17:54 37.1 °C 15.9 °C 1007.1 hPa ESE 14.8 km/h 30.6 km/h 28.8% 0.0 mm
17:59 37.1 °C 15.6 °C 1007.1 hPa ESE 15.1 km/h 30.6 km/h 28.1% 0.0 mm
18:04 37 °C 15.6 °C 1007.3 hPa ESE 16.4 km/h 24.1 km/h 28.1% 0.0 mm
18:09 36.9 °C 15.9 °C 1007.3 hPa ESE 16 km/h 24.1 km/h 29% 0.0 mm
18:14 36.8 °C 15.9 °C 1007.3 hPa Este 13.7 km/h 22.5 km/h 29.1% 0.0 mm
18:19 36.6 °C 16.6 °C 1007.4 hPa NE 13.4 km/h 20.4 km/h 30.9% 0.0 mm
18:24 35.8 °C 16.9 °C 1007.4 hPa NE 11.9 km/h 28.2 km/h 32.8% 0.0 mm
18:29 35.1 °C 16.9 °C 1007.4 hPa NE 12.3 km/h 27.4 km/h 34.1% 0.0 mm
18:34 34.6 °C 16.6 °C 1007.4 hPa NNE 14 km/h 33.5 km/h 34.3% 0.0 mm
18:39 34.1 °C 16.5 °C 1007.4 hPa NE 14.8 km/h 33.8 km/h 35% 0.0 mm
18:44 33.8 °C 16.7 °C 1007.4 hPa NE 19 km/h 33.8 km/h 36% 0.0 mm
18:49 33.7 °C 17 °C 1007.5 hPa NNE 18.4 km/h 33.5 km/h 37% 0.0 mm
18:54 33.4 °C 17 °C 1007.5 hPa NE 15.6 km/h 33.8 km/h 37.4% 0.0 mm
18:59 33.3 °C 17 °C 1007.5 hPa NNE 16.1 km/h 29 km/h 38% 0.0 mm
19:04 33.2 °C 17.3 °C 1007.5 hPa NNE 18 km/h 27.4 km/h 38.8% 0.0 mm
19:09 33.2 °C 17.5 °C 1007.5 hPa NNE 17.8 km/h 29.6 km/h 39.3% 0.0 mm
19:14 33.2 °C 17.4 °C 1007.5 hPa NNE 16.4 km/h 29 km/h 39% 0.0 mm
19:19 33.2 °C 17.4 °C 1007.6 hPa NNE 16.3 km/h 27.8 km/h 39% 0.0 mm
19:24 33.1 °C 17.2 °C 1007.6 hPa NNE 15.6 km/h 27.4 km/h 38.6% 0.0 mm
19:29 33.1 °C 16.8 °C 1007.6 hPa NNE 15.7 km/h 28.2 km/h 37.8% 0.0 mm
19:34 33 °C 17.1 °C 1007.6 hPa NNE 16.1 km/h 27.4 km/h 38.6% 0.0 mm
19:39 32.9 °C 16.8 °C 1007.6 hPa NNE 16.1 km/h 25.9 km/h 38% 0.0 mm
19:44 32.8 °C 16.6 °C 1007.6 hPa NNE 16.1 km/h 29.1 km/h 38% 0.0 mm
19:49 32.5 °C 16.6 °C 1007.7 hPa NNE 16.5 km/h 30.6 km/h 38.5% 0.0 mm
19:54 32.3 °C 16.9 °C 1007.7 hPa NNE 18.4 km/h 30.6 km/h 39.8% 0.0 mm
19:59 32.2 °C 17.4 °C 1007.7 hPa NE 18.3 km/h 29 km/h 41.6% 0.0 mm
20:04 31.9 °C 17.7 °C 1007.9 hPa NE 18 km/h 31.7 km/h 42.8% 0.0 mm
20:09 31.8 °C 17.6 °C 1007.9 hPa NNE 17.9 km/h 32.2 km/h 42.7% 0.0 mm
20:14 31.7 °C 17.3 °C 1007.9 hPa NNE 17.2 km/h 30.6 km/h 42.1% 0.0 mm
20:19 31.6 °C 16.9 °C 1008.0 hPa NNE 17.2 km/h 25.9 km/h 41.3% 0.0 mm
20:24 31.5 °C 16.6 °C 1008.0 hPa NNE 17.2 km/h 26.2 km/h 41% 0.0 mm
20:29 31.4 °C 16.5 °C 1008.0 hPa NNE 17.2 km/h 25.9 km/h 41% 0.0 mm
20:34 31.3 °C 16.5 °C 1008.2 hPa NNE 17.2 km/h 25.9 km/h 41% 0.0 mm
20:39 31.2 °C 16.4 °C 1008.2 hPa NE 17.1 km/h 25.7 km/h 41% 0.0 mm
20:44 31.1 °C 16 °C 1008.2 hPa NNE 16.4 km/h 25.9 km/h 40.3% 0.0 mm
20:49 31.1 °C 16.2 °C 1008.5 hPa NE 16.4 km/h 25.7 km/h 41% 0.0 mm
20:54 30.9 °C 15.9 °C 1008.5 hPa NNE 16.1 km/h 22.5 km/h 40.4% 0.0 mm
20:59 30.8 °C 15.7 °C 1008.5 hPa NE 15.4 km/h 20.4 km/h 40% 0.0 mm
21:04 30.8 °C 15.8 °C 1008.7 hPa NNE 13 km/h 20.9 km/h 40.4% 0.0 mm
21:09 30.7 °C 15.9 °C 1008.7 hPa NNE 13.1 km/h 20.9 km/h 41% 0.0 mm
21:14 30.6 °C 15.9 °C 1008.7 hPa NNE 13.7 km/h 20.9 km/h 41% 0.0 mm
21:19 30.5 °C 15.8 °C 1008.8 hPa NE 13.4 km/h 20.9 km/h 41% 0.0 mm
21:24 30.4 °C 16.1 °C 1008.8 hPa NNE 12.2 km/h 20.9 km/h 42% 0.0 mm
21:29 30.3 °C 16 °C 1008.8 hPa NE 11.9 km/h 16.7 km/h 42% 0.0 mm
21:34 30.3 °C 15.9 °C 1009.0 hPa NE 10.3 km/h 16.1 km/h 42% 0.0 mm
21:39 30.3 °C 15.9 °C 1009.0 hPa NE 10.2 km/h 14.8 km/h 42% 0.0 mm
21:44 30.3 °C 15.9 °C 1009.0 hPa NE 9.5 km/h 19 km/h 42% 0.0 mm
21:49 30.2 °C 15.9 °C 1009.1 hPa NE 9.6 km/h 19.3 km/h 42% 0.0 mm
21:54 30.1 °C 15.6 °C 1009.1 hPa NNE 10 km/h 19.3 km/h 41.5% 0.0 mm
21:59 30 °C 15.3 °C 1009.1 hPa NE 10 km/h 19 km/h 41.1% 0.0 mm
22:04 29.9 °C 15.2 °C 1009.5 hPa NNE 10.3 km/h 19.3 km/h 41% 0.0 mm
22:09 29.9 °C 15.2 °C 1009.5 hPa NE 10.4 km/h 17.7 km/h 41% 0.0 mm
22:14 29.8 °C 15.2 °C 1009.5 hPa NNE 11.1 km/h 18.5 km/h 41% 0.0 mm
22:19 29.8 °C 15.1 °C 1009.9 hPa NE 10.9 km/h 19.3 km/h 41% 0.0 mm
22:24 29.7 °C 15.1 °C 1009.9 hPa NNE 10 km/h 14.5 km/h 41% 0.0 mm
22:29 29.7 °C 15 °C 1009.9 hPa NNE 9.9 km/h 18.5 km/h 41% 0.0 mm
22:34 29.6 °C 15 °C 1010.0 hPa NNE 9.5 km/h 19.3 km/h 41.2% 0.0 mm
22:39 29.4 °C 15.1 °C 1010.0 hPa NNE 9.4 km/h 14.8 km/h 41.7% 0.0 mm
22:44 29.3 °C 15.1 °C 1010.0 hPa NNE 8.7 km/h 14.5 km/h 42% 0.0 mm
22:49 29.2 °C 14.9 °C 1010.4 hPa NE 8.5 km/h 12.9 km/h 42% 0.0 mm
22:54 29.2 °C 14.9 °C 1010.4 hPa NE 7.6 km/h 13.7 km/h 42% 0.0 mm
22:59 29.1 °C 15 °C 1010.4 hPa NE 8.1 km/h 15.6 km/h 42.3% 0.0 mm
23:04 29.1 °C 15.3 °C 1010.4 hPa NE 10 km/h 16.1 km/h 43.3% 0.0 mm
23:09 29.1 °C 16.1 °C 1010.4 hPa NE 10 km/h 16.1 km/h 45.5% 0.0 mm
23:14 29.1 °C 16.8 °C 1010.4 hPa NE 10 km/h 16.1 km/h 47.7% 0.0 mm
23:19 28.9 °C 17.5 °C 1010.5 hPa NE 9.7 km/h 14.8 km/h 50.1% 0.0 mm
23:24 28.8 °C 17.7 °C 1010.5 hPa NNE 8.4 km/h 14.5 km/h 51% 0.0 mm
23:29 28.8 °C 17.2 °C 1010.5 hPa North 7.7 km/h 11.3 km/h 49.8% 0.0 mm
23:34 28.7 °C 17.1 °C 1010.5 hPa NNO 4.7 km/h 8 km/h 49.6% 0.0 mm
23:39 28.5 °C 17 °C 1010.5 hPa NNE 4.4 km/h 7.6 km/h 49.8% 0.0 mm
23:44 28.4 °C 17.4 °C 1010.5 hPa NE 2.9 km/h 8.4 km/h 51.4% 0.0 mm
23:49 28.3 °C 17.4 °C 1010.6 hPa North 3 km/h 8 km/h 51.5% 0.0 mm
23:54 28.3 °C 17.2 °C 1010.6 hPa NNO 3.2 km/h 8 km/h 51% 0.0 mm
23:59 28.3 °C 17.2 °C 1010.6 hPa NNO 3.4 km/h 8 km/h 51% 0.0 mm
Murcia-Puente Tocinos, Espa?a
Compliments of Weather Underground - 3.25 mb

La estación de MeteoMurcia.com, publica sus datos en los siguientes proyectos:

Weather Underground PWS IMURCIAP2 Meteoclimatic www.awekas.at

Web Analytics

Clicky